createdAt,value
2016-09-03T00:00:13.317Z,1004.14
2016-09-03T00:00:35.058Z,1004.10
2016-09-03T00:00:56.792Z,1004.23
2016-09-03T00:01:18.588Z,1004.20
2016-09-03T00:01:40.379Z,1004.08
2016-09-03T00:02:02.210Z,1004.11
2016-09-03T00:02:23.941Z,1004.30
2016-09-03T00:02:45.826Z,1004.28
2016-09-03T00:03:12.416Z,1004.41
2016-09-03T00:03:34.149Z,1004.11
2016-09-03T00:03:55.878Z,1003.98
2016-09-03T00:04:17.610Z,1004.09
2016-09-03T00:04:39.347Z,1004.17
2016-09-03T00:05:01.088Z,1004.24
2016-09-03T00:05:23.927Z,1004.32
2016-09-03T00:05:47.709Z,1004.19
2016-09-03T00:06:09.453Z,1004.24
2016-09-03T00:06:31.241Z,1004.54
2016-09-03T00:06:52.970Z,1004.35
2016-09-03T00:07:14.749Z,1004.15
2016-09-03T00:08:04.013Z,1004.17
2016-09-03T00:08:25.751Z,1003.99
2016-09-03T00:08:47.498Z,1004.12
2016-09-03T00:09:09.232Z,1003.99
2016-09-03T00:09:35.740Z,1004.27
2016-09-03T00:09:57.479Z,1004.17
2016-09-03T00:10:23.995Z,1004.01
2016-09-03T00:10:45.732Z,1004.05
2016-09-03T00:11:08.470Z,1004.01
2016-09-03T00:11:30.215Z,1004.19
2016-09-03T00:11:51.953Z,1004.19
2016-09-03T00:12:18.458Z,1004.35
2016-09-03T00:12:40.202Z,1004.42
2016-09-03T00:13:01.976Z,1004.36
2016-09-03T00:13:51.176Z,1004.15
2016-09-03T00:14:12.962Z,1004.08
2016-09-03T00:14:34.759Z,1004.21
2016-09-03T00:14:56.493Z,1004.08
2016-09-03T00:15:22.999Z,1004.08
2016-09-03T00:15:49.501Z,1004.14
2016-09-03T00:16:12.259Z,1004.09
2016-09-03T00:16:35.985Z,1004.09
2016-09-03T00:16:58.791Z,1004.14
2016-09-03T00:17:20.740Z,1004.16
2016-09-03T00:17:47.405Z,1004.21
2016-09-03T00:18:09.140Z,1004.40
2016-09-03T00:18:35.632Z,1004.21
2016-09-03T00:19:02.140Z,1004.35
2016-09-03T00:19:24.876Z,1004.28
2016-09-03T00:19:46.615Z,1004.28
2016-09-03T00:20:13.118Z,1004.33
2016-09-03T00:20:34.906Z,1004.25
2016-09-03T00:20:57.635Z,1004.21
2016-09-03T00:21:20.369Z,1003.92
2016-09-03T00:21:43.255Z,1004.16
2016-09-03T00:22:05.977Z,1003.93
2016-09-03T00:22:28.784Z,1004.11
2016-09-03T00:22:53.473Z,1003.99
2016-09-03T00:23:17.233Z,1003.86
2016-09-03T00:23:40.038Z,1004.10
2016-09-03T00:24:01.765Z,1004.26
2016-09-03T00:24:23.588Z,1004.33
2016-09-03T00:24:46.314Z,1004.43
2016-09-03T00:25:08.070Z,1004.40
2016-09-03T00:25:29.807Z,1003.96
2016-09-03T00:25:51.543Z,1004.12
2016-09-03T00:26:18.054Z,1004.42
2016-09-03T00:26:39.776Z,1004.12
2016-09-03T00:27:06.279Z,1003.99
2016-09-03T00:27:29.011Z,1003.74
2016-09-03T00:27:51.748Z,1003.80
2016-09-03T00:28:18.266Z,1003.74
2016-09-03T00:28:44.893Z,1004.11
2016-09-03T00:29:06.617Z,1004.10
2016-09-03T00:29:29.354Z,1004.00
2016-09-03T00:29:51.087Z,1003.85
2016-09-03T00:30:12.840Z,1004.00
2016-09-03T00:30:34.595Z,1003.94
2016-09-03T00:31:01.111Z,1004.24
2016-09-03T00:31:23.834Z,1004.02
2016-09-03T00:31:45.622Z,1004.51
2016-09-03T00:32:07.376Z,1004.18
2016-09-03T00:32:29.123Z,1004.10
2016-09-03T00:32:50.971Z,1003.85
2016-09-03T00:33:12.800Z,1003.95
2016-09-03T00:33:39.318Z,1003.92
2016-09-03T00:34:03.069Z,1003.95
2016-09-03T00:34:25.799Z,1004.00
2016-09-03T00:34:47.526Z,1003.99
2016-09-03T00:35:09.278Z,1003.94
2016-09-03T00:35:31.031Z,1003.94
2016-09-03T00:35:52.756Z,1003.90
2016-09-03T00:36:40.989Z,1004.23
2016-09-03T00:37:02.791Z,1004.47
2016-09-03T00:37:24.558Z,1003.92
2016-09-03T00:37:46.295Z,1003.98
2016-09-03T00:38:08.089Z,1004.04
2016-09-03T00:38:30.819Z,1003.80
2016-09-03T00:38:52.548Z,1003.88
2016-09-03T00:39:15.289Z,1003.93
2016-09-03T00:39:37.117Z,1003.93
2016-09-03T00:40:02.577Z,1003.98
2016-09-03T00:40:24.304Z,1004.05
2016-09-03T00:40:48.089Z,1004.04
2016-09-03T00:41:14.589Z,1004.03
2016-09-03T00:41:36.400Z,1003.99
2016-09-03T00:41:59.133Z,1003.80
2016-09-03T00:42:25.678Z,1003.94
2016-09-03T00:42:52.199Z,1003.98
2016-09-03T00:43:21.376Z,1004.06
2016-09-03T00:43:43.111Z,1004.08
2016-09-03T00:44:04.851Z,1003.90
2016-09-03T00:44:27.597Z,1003.99
2016-09-03T00:44:49.428Z,1003.89
2016-09-03T00:45:15.937Z,1003.98
2016-09-03T00:45:37.661Z,1003.93
2016-09-03T00:45:59.434Z,1003.92
2016-09-03T00:46:21.168Z,1003.89
2016-09-03T00:46:43.898Z,1003.96
2016-09-03T00:47:05.648Z,1003.91
2016-09-03T00:47:27.539Z,1003.70
2016-09-03T00:47:49.283Z,1003.94
2016-09-03T00:48:11.028Z,1003.90
2016-09-03T00:48:32.765Z,1003.95
2016-09-03T00:48:54.531Z,1003.85
2016-09-03T00:49:16.273Z,1004.08
2016-09-03T00:49:37.991Z,1003.76
2016-09-03T00:50:02.353Z,1004.00
2016-09-03T00:50:24.087Z,1003.77
2016-09-03T00:50:45.843Z,1004.14
2016-09-03T00:51:07.572Z,1003.79
2016-09-03T00:51:29.300Z,1003.95
2016-09-03T00:51:51.031Z,1004.07
2016-09-03T00:52:13.754Z,1003.81
2016-09-03T00:52:35.495Z,1003.73
2016-09-03T00:52:57.239Z,1003.81
2016-09-03T00:53:18.974Z,1003.86
2016-09-03T00:53:41.703Z,1003.87
2016-09-03T00:54:03.428Z,1003.93
2016-09-03T00:54:25.169Z,1003.98
2016-09-03T00:54:46.990Z,1003.73
2016-09-03T00:55:08.730Z,1003.82
2016-09-03T00:55:31.469Z,1003.96
2016-09-03T00:55:53.205Z,1003.84
2016-09-03T00:56:19.749Z,1003.87
2016-09-03T00:56:41.482Z,1003.90
2016-09-03T00:57:03.224Z,1003.94
2016-09-03T00:57:24.952Z,1003.91
2016-09-03T00:57:46.676Z,1003.93
2016-09-03T00:58:08.417Z,1003.63
2016-09-03T00:58:30.158Z,1003.96
2016-09-03T00:58:51.889Z,1003.96
2016-09-03T00:59:13.620Z,1004.09
2016-09-03T00:59:35.364Z,1004.11
2016-09-03T00:59:57.105Z,1003.89
2016-09-03T01:00:26.449Z,1003.74
2016-09-03T01:00:51.058Z,1003.69
2016-09-03T01:01:12.791Z,1003.60
2016-09-03T01:01:34.529Z,1003.80
2016-09-03T01:02:01.025Z,1003.83
2016-09-03T01:02:50.297Z,1003.70
2016-09-03T01:03:14.621Z,1003.58
2016-09-03T01:03:36.363Z,1003.63
2016-09-03T01:04:02.860Z,1003.91
2016-09-03T01:04:25.600Z,1003.80
2016-09-03T01:04:47.335Z,1003.77
2016-09-03T01:05:09.067Z,1003.73
2016-09-03T01:05:57.287Z,1003.66
2016-09-03T01:06:19.102Z,1003.74
2016-09-03T01:06:45.624Z,1003.76
2016-09-03T01:07:07.451Z,1003.88
2016-09-03T01:07:29.187Z,1003.94
2016-09-03T01:07:50.920Z,1003.75
2016-09-03T01:08:12.644Z,1003.78
2016-09-03T01:08:39.140Z,1003.58
2016-09-03T01:09:00.888Z,1003.81
2016-09-03T01:09:30.285Z,1003.95
2016-09-03T01:09:54.856Z,1003.96
2016-09-03T01:10:21.464Z,1003.47
2016-09-03T01:10:43.252Z,1003.60
2016-09-03T01:11:12.683Z,1003.47
2016-09-03T01:11:35.496Z,1003.64
2016-09-03T01:11:57.403Z,1003.54
2016-09-03T01:12:19.300Z,1003.54
2016-09-03T01:12:41.240Z,1003.53
2016-09-03T01:13:03.076Z,1003.60
2016-09-03T01:13:24.811Z,1003.53
2016-09-03T01:13:46.554Z,1003.68
2016-09-03T01:14:15.883Z,1003.63
2016-09-03T01:14:42.382Z,1003.43
2016-09-03T01:15:06.836Z,1003.69
2016-09-03T01:15:28.567Z,1003.76
2016-09-03T01:15:55.068Z,1003.93
2016-09-03T01:16:19.378Z,1003.58
2016-09-03T01:16:46.871Z,1003.78
2016-09-03T01:17:08.610Z,1003.65
2016-09-03T01:17:35.113Z,1003.80
2016-09-03T01:17:56.920Z,1003.75
2016-09-03T01:18:18.700Z,1003.86
2016-09-03T01:18:45.192Z,1003.75
2016-09-03T01:19:06.923Z,1003.61
2016-09-03T01:19:56.279Z,1003.74
2016-09-03T01:20:18.015Z,1003.71
2016-09-03T01:20:39.766Z,1003.91
2016-09-03T01:21:01.518Z,1003.77
2016-09-03T01:21:23.240Z,1003.84
2016-09-03T01:21:45.019Z,1003.84
2016-09-03T01:22:06.743Z,1004.00
2016-09-03T01:22:28.494Z,1003.84
2016-09-03T01:22:50.248Z,1003.67
2016-09-03T01:23:12.027Z,1003.68
2016-09-03T01:23:33.771Z,1003.87
2016-09-03T01:23:55.490Z,1004.13
2016-09-03T01:24:17.221Z,1003.80
2016-09-03T01:24:38.948Z,1004.02
2016-09-03T01:25:00.674Z,1003.95
2016-09-03T01:25:22.408Z,1003.75
2016-09-03T01:25:44.290Z,1003.90
2016-09-03T01:26:06.059Z,1004.16
2016-09-03T01:26:27.783Z,1004.10
2016-09-03T01:26:49.509Z,1003.87
2016-09-03T01:27:11.244Z,1003.76
2016-09-03T01:27:32.978Z,1003.77
2016-09-03T01:27:54.708Z,1003.77
2016-09-03T01:28:16.446Z,1004.15
2016-09-03T01:28:38.179Z,1004.22
2016-09-03T01:28:59.903Z,1004.31
2016-09-03T01:29:21.636Z,1004.24
2016-09-03T01:29:43.362Z,1004.26
2016-09-03T01:30:05.100Z,1004.02
2016-09-03T01:30:26.850Z,1003.81
2016-09-03T01:30:48.581Z,1003.93
2016-09-03T01:31:10.310Z,1004.06
2016-09-03T01:31:32.037Z,1004.12
2016-09-03T01:31:53.776Z,1003.96
2016-09-03T01:32:15.506Z,1003.94
2016-09-03T01:32:37.243Z,1003.72
2016-09-03T01:32:58.974Z,1003.81
2016-09-03T01:33:20.706Z,1003.98
2016-09-03T01:33:42.502Z,1004.10
2016-09-03T01:34:04.293Z,1003.92
2016-09-03T01:34:26.066Z,1004.17
2016-09-03T01:34:47.868Z,1004.24
2016-09-03T01:35:14.374Z,1004.10
2016-09-03T01:35:36.113Z,1004.15
2016-09-03T01:35:57.855Z,1004.08
2016-09-03T01:36:24.351Z,1004.29
2016-09-03T01:36:46.082Z,1004.14
2016-09-03T01:37:07.806Z,1004.18
2016-09-03T01:37:39.073Z,1004.07
2016-09-03T01:38:05.567Z,1003.92
2016-09-03T01:38:27.327Z,1003.84
2016-09-03T01:38:49.061Z,1003.95
2016-09-03T01:39:10.783Z,1003.91
2016-09-03T01:39:32.515Z,1004.17
2016-09-03T01:39:54.249Z,1004.17
2016-09-03T01:40:15.976Z,1004.09
2016-09-03T01:40:37.698Z,1003.80
2016-09-03T01:40:59.423Z,1003.97
2016-09-03T01:41:21.160Z,1003.94
2016-09-03T01:41:42.891Z,1004.06
2016-09-03T01:42:04.646Z,1004.17
2016-09-03T01:42:26.379Z,1004.38
2016-09-03T01:42:48.114Z,1003.80
2016-09-03T01:43:36.353Z,1004.29
2016-09-03T01:43:58.091Z,1003.97
2016-09-03T01:44:19.817Z,1004.11
2016-09-03T01:44:44.495Z,1004.34
2016-09-03T01:45:06.273Z,1004.20
2016-09-03T01:45:28.019Z,1004.02
2016-09-03T01:45:54.517Z,1004.06
2016-09-03T01:46:16.255Z,1004.09
2016-09-03T01:46:37.992Z,1004.54
2016-09-03T01:46:59.720Z,1004.56
2016-09-03T01:47:21.480Z,1004.46
2016-09-03T01:47:43.269Z,1004.21
2016-09-03T01:48:05.159Z,1004.08
2016-09-03T01:48:26.856Z,1004.18
2016-09-03T01:48:48.594Z,1004.10
2016-09-03T01:49:10.332Z,1004.02
2016-09-03T01:49:32.059Z,1003.96
2016-09-03T01:49:53.778Z,1004.12
2016-09-03T01:50:15.509Z,1004.21
2016-09-03T01:50:37.275Z,1004.08
2016-09-03T01:50:59.003Z,1004.13
2016-09-03T01:51:20.731Z,1003.96
2016-09-03T01:51:42.479Z,1004.20
2016-09-03T01:52:04.206Z,1004.30
2016-09-03T01:52:25.941Z,1004.30
2016-09-03T01:52:47.682Z,1004.24
2016-09-03T01:53:09.420Z,1004.21
2016-09-03T01:53:31.166Z,1004.06
2016-09-03T01:53:53.009Z,1003.94
2016-09-03T01:54:14.799Z,1003.95
2016-09-03T01:54:36.584Z,1004.09
2016-09-03T01:54:58.315Z,1003.86
2016-09-03T01:55:22.670Z,1004.10
2016-09-03T01:55:44.398Z,1004.13
2016-09-03T01:56:06.157Z,1004.05
2016-09-03T01:56:27.905Z,1004.11
2016-09-03T01:56:49.637Z,1003.82
2016-09-03T01:57:11.359Z,1003.89
2016-09-03T01:57:33.092Z,1003.91
2016-09-03T01:57:54.821Z,1003.98
2016-09-03T01:58:16.619Z,1003.93
2016-09-03T01:58:38.362Z,1003.79
2016-09-03T01:59:00.097Z,1004.05
2016-09-03T01:59:21.824Z,1003.99
2016-09-03T01:59:43.563Z,1003.93
2016-09-03T02:00:05.314Z,1004.08
2016-09-03T02:00:27.054Z,1003.99
2016-09-03T02:00:48.771Z,1004.07
2016-09-03T02:01:10.516Z,1003.96
2016-09-03T02:01:32.254Z,1004.00
2016-09-03T02:01:54.081Z,1004.05
2016-09-03T02:02:15.946Z,1003.91
2016-09-03T02:02:37.776Z,1004.05
2016-09-03T02:02:59.556Z,1004.01
2016-09-03T02:03:21.287Z,1004.28
2016-09-03T02:03:43.008Z,1003.94
2016-09-03T02:04:04.737Z,1004.12
2016-09-03T02:04:26.487Z,1003.92
2016-09-03T02:04:48.212Z,1003.85
2016-09-03T02:05:36.503Z,1004.05
2016-09-03T02:05:58.289Z,1003.96
2016-09-03T02:06:20.033Z,1003.97
2016-09-03T02:06:46.532Z,1003.87
2016-09-03T02:07:08.288Z,1003.92
2016-09-03T02:07:30.032Z,1004.08
2016-09-03T02:07:51.773Z,1004.24
2016-09-03T02:08:18.270Z,1004.36
2016-09-03T02:08:39.995Z,1003.98
2016-09-03T02:09:01.717Z,1003.98
2016-09-03T02:09:23.450Z,1004.25
2016-09-03T02:09:45.201Z,1004.04
2016-09-03T02:10:06.919Z,1004.17
2016-09-03T02:10:28.692Z,1004.09
2016-09-03T02:10:50.654Z,1003.94
2016-09-03T02:11:12.378Z,1004.07
2016-09-03T02:11:34.141Z,1003.73
2016-09-03T02:11:55.956Z,1003.65
2016-09-03T02:12:17.696Z,1003.82
2016-09-03T02:12:39.425Z,1003.91
2016-09-03T02:13:01.158Z,1004.04
2016-09-03T02:13:22.927Z,1004.07
2016-09-03T02:13:49.425Z,1004.06
2016-09-03T02:14:14.014Z,1004.13
2016-09-03T02:14:35.773Z,1003.97
2016-09-03T02:14:57.516Z,1004.16
2016-09-03T02:15:19.255Z,1003.67
2016-09-03T02:15:40.999Z,1004.02
2016-09-03T02:16:02.721Z,1003.79
2016-09-03T02:16:24.454Z,1003.81
2016-09-03T02:16:46.195Z,1003.97
2016-09-03T02:17:07.946Z,1004.20
2016-09-03T02:17:29.688Z,1003.83
2016-09-03T02:17:51.510Z,1003.94
2016-09-03T02:18:13.252Z,1003.82
2016-09-03T02:18:34.992Z,1004.28
2016-09-03T02:19:23.307Z,1003.82
2016-09-03T02:19:45.050Z,1004.06
2016-09-03T02:20:06.775Z,1003.94
2016-09-03T02:20:28.599Z,1003.81
2016-09-03T02:20:50.391Z,1003.74
2016-09-03T02:21:12.115Z,1003.81
2016-09-03T02:21:33.939Z,1003.78
2016-09-03T02:21:55.677Z,1003.90
2016-09-03T02:22:17.418Z,1003.99
2016-09-03T02:22:39.207Z,1004.12
2016-09-03T02:23:01.040Z,1003.94
2016-09-03T02:23:22.904Z,1003.78
2016-09-03T02:23:49.431Z,1003.98
2016-09-03T02:24:11.197Z,1003.67
2016-09-03T02:24:32.928Z,1003.77
2016-09-03T02:24:54.659Z,1003.84
2016-09-03T02:25:16.407Z,1003.85
2016-09-03T02:25:38.137Z,1003.92
2016-09-03T02:25:59.882Z,1003.82
2016-09-03T02:26:21.811Z,1003.63
2016-09-03T02:26:43.539Z,1003.78
2016-09-03T02:27:05.286Z,1004.00
2016-09-03T02:27:27.024Z,1003.93
2016-09-03T02:27:48.756Z,1003.80
2016-09-03T02:28:10.504Z,1003.86
2016-09-03T02:28:32.260Z,1003.86
2016-09-03T02:28:53.987Z,1003.83
2016-09-03T02:29:15.719Z,1003.78
2016-09-03T02:29:40.218Z,1004.04
2016-09-03T02:30:02.081Z,1004.07
2016-09-03T02:30:23.817Z,1003.95
2016-09-03T02:30:45.543Z,1003.72
2016-09-03T02:31:08.283Z,1003.79
2016-09-03T02:31:30.010Z,1004.10
2016-09-03T02:31:51.745Z,1003.98
2016-09-03T02:32:13.488Z,1003.78
2016-09-03T02:32:35.235Z,1003.95
2016-09-03T02:32:56.965Z,1003.93
2016-09-03T02:33:18.710Z,1003.72
2016-09-03T02:33:40.467Z,1003.90
2016-09-03T02:34:02.240Z,1003.85
2016-09-03T02:34:23.981Z,1003.92
2016-09-03T02:34:45.808Z,1003.76
2016-09-03T02:35:07.550Z,1003.90
2016-09-03T02:35:29.287Z,1003.68
2016-09-03T02:35:51.008Z,1003.88
2016-09-03T02:36:12.746Z,1003.79
2016-09-03T02:36:34.611Z,1003.82
2016-09-03T02:36:56.336Z,1003.69
2016-09-03T02:37:22.849Z,1003.76
2016-09-03T02:37:44.583Z,1003.69
2016-09-03T02:38:06.317Z,1003.77
2016-09-03T02:38:28.059Z,1003.93
2016-09-03T02:38:49.787Z,1003.68
2016-09-03T02:39:11.524Z,1003.88
2016-09-03T02:39:33.267Z,1003.79
2016-09-03T02:39:59.767Z,1003.71
2016-09-03T02:40:21.504Z,1003.83
2016-09-03T02:40:43.236Z,1004.07
2016-09-03T02:41:05.001Z,1004.02
2016-09-03T02:41:26.750Z,1003.87
2016-09-03T02:41:48.468Z,1003.96
2016-09-03T02:42:10.196Z,1003.91
2016-09-03T02:42:31.968Z,1003.56
2016-09-03T02:42:53.778Z,1003.57
2016-09-03T02:43:15.613Z,1003.51
2016-09-03T02:43:37.431Z,1003.50
2016-09-03T02:43:59.159Z,1003.86
2016-09-03T02:44:20.884Z,1003.66
2016-09-03T02:44:47.391Z,1003.90
2016-09-03T02:45:09.114Z,1003.56
2016-09-03T02:45:30.849Z,1003.87
2016-09-03T02:45:52.627Z,1003.70
2016-09-03T02:46:14.410Z,1003.66
2016-09-03T02:46:36.135Z,1003.66
2016-09-03T02:47:02.629Z,1003.71
2016-09-03T02:47:24.371Z,1003.70
2016-09-03T02:47:46.096Z,1003.77
2016-09-03T02:48:07.886Z,1003.51
2016-09-03T02:48:29.623Z,1003.98
2016-09-03T02:48:51.347Z,1003.67
2016-09-03T02:49:13.083Z,1003.76
2016-09-03T02:49:34.829Z,1003.77
2016-09-03T02:49:56.568Z,1003.45
2016-09-03T02:50:18.321Z,1003.73
2016-09-03T02:50:40.090Z,1003.48
2016-09-03T02:51:01.815Z,1003.75
2016-09-03T02:51:23.744Z,1003.70
2016-09-03T02:51:45.572Z,1003.34
2016-09-03T02:52:07.297Z,1003.32
2016-09-03T02:52:29.022Z,1003.47
2016-09-03T02:52:50.743Z,1003.39
2016-09-03T02:53:12.465Z,1003.89
2016-09-03T02:53:34.189Z,1003.65
2016-09-03T02:53:55.918Z,1003.81
2016-09-03T02:54:17.656Z,1003.48
2016-09-03T02:54:39.374Z,1003.85
2016-09-03T02:55:01.092Z,1003.65
2016-09-03T02:55:22.810Z,1003.61
2016-09-03T02:55:49.303Z,1003.38
2016-09-03T02:56:11.025Z,1003.50
2016-09-03T02:56:32.753Z,1003.53
2016-09-03T02:56:54.477Z,1003.41
2016-09-03T02:57:16.195Z,1003.59
2016-09-03T02:57:37.940Z,1003.57
2016-09-03T02:57:59.735Z,1003.60
2016-09-03T02:58:21.476Z,1003.57
2016-09-03T02:58:43.293Z,1003.94
2016-09-03T02:59:05.047Z,1003.63
2016-09-03T02:59:26.859Z,1003.53
2016-09-03T02:59:49.610Z,1003.60
2016-09-03T03:00:11.348Z,1003.53
2016-09-03T03:00:35.742Z,1003.73
2016-09-03T03:00:57.486Z,1003.76
2016-09-03T03:01:19.246Z,1003.66
2016-09-03T03:01:40.971Z,1003.59
2016-09-03T03:02:02.727Z,1004.07
2016-09-03T03:02:29.304Z,1003.85
2016-09-03T03:02:51.037Z,1003.78
2016-09-03T03:03:12.772Z,1003.86
2016-09-03T03:03:39.336Z,1003.75
2016-09-03T03:04:05.832Z,1003.82
2016-09-03T03:04:27.588Z,1003.99
2016-09-03T03:04:50.314Z,1004.06
2016-09-03T03:05:12.065Z,1003.92
2016-09-03T03:05:33.796Z,1003.99
2016-09-03T03:05:55.627Z,1003.75
2016-09-03T03:06:22.208Z,1003.72
2016-09-03T03:06:43.939Z,1003.81
2016-09-03T03:07:10.447Z,1003.96
2016-09-03T03:07:32.167Z,1003.90
2016-09-03T03:07:53.896Z,1003.97
2016-09-03T03:08:15.633Z,1003.77
2016-09-03T03:08:38.366Z,1003.91
2016-09-03T03:09:00.117Z,1003.88
2016-09-03T03:09:21.841Z,1003.83
2016-09-03T03:09:44.597Z,1003.86
2016-09-03T03:10:06.562Z,1004.10
2016-09-03T03:10:28.299Z,1004.11
2016-09-03T03:10:52.018Z,1004.31
2016-09-03T03:11:13.744Z,1003.89
2016-09-03T03:11:35.596Z,1003.64
2016-09-03T03:11:57.329Z,1003.70
2016-09-03T03:12:19.054Z,1004.28
2016-09-03T03:12:45.540Z,1004.13
2016-09-03T03:13:07.285Z,1003.95
2016-09-03T03:13:29.025Z,1003.95
2016-09-03T03:13:50.754Z,1003.88
2016-09-03T03:14:17.272Z,1003.59
2016-09-03T03:14:39.042Z,1004.05
2016-09-03T03:15:31.998Z,1004.04
2016-09-03T03:15:53.729Z,1004.15
2016-09-03T03:16:15.461Z,1004.04
2016-09-03T03:17:03.746Z,1003.82
2016-09-03T03:17:25.479Z,1003.75
2016-09-03T03:17:47.240Z,1003.87
2016-09-03T03:18:18.862Z,1004.00
2016-09-03T03:18:40.664Z,1003.75
2016-09-03T03:19:02.402Z,1003.99
2016-09-03T03:19:24.177Z,1003.85
2016-09-03T03:19:45.918Z,1003.90
2016-09-03T03:20:08.642Z,1003.93
2016-09-03T03:20:30.366Z,1004.17
2016-09-03T03:20:52.110Z,1004.42
2016-09-03T03:21:13.880Z,1004.25
2016-09-03T03:21:35.599Z,1004.01
2016-09-03T03:21:57.317Z,1004.05
2016-09-03T03:22:19.128Z,1004.05
2016-09-03T03:22:40.872Z,1004.07
2016-09-03T03:23:02.604Z,1003.87
2016-09-03T03:23:24.405Z,1003.76
2016-09-03T03:23:47.159Z,1004.12
2016-09-03T03:24:08.898Z,1004.43
2016-09-03T03:24:30.639Z,1004.37
2016-09-03T03:24:52.363Z,1004.10
2016-09-03T03:25:14.092Z,1004.07
2016-09-03T03:25:35.877Z,1003.70
2016-09-03T03:25:57.618Z,1003.92
2016-09-03T03:26:19.346Z,1003.91
2016-09-03T03:26:41.067Z,1003.76
2016-09-03T03:27:02.795Z,1003.97
2016-09-03T03:27:24.520Z,1004.12
2016-09-03T03:27:46.242Z,1004.28
2016-09-03T03:28:07.983Z,1004.43
2016-09-03T03:28:29.730Z,1004.43
2016-09-03T03:28:51.502Z,1004.39
2016-09-03T03:29:13.240Z,1004.30
2016-09-03T03:29:34.955Z,1004.18
2016-09-03T03:29:56.687Z,1004.14
2016-09-03T03:30:18.423Z,1004.11
2016-09-03T03:30:40.165Z,1004.26
2016-09-03T03:31:01.893Z,1003.99
2016-09-03T03:31:23.720Z,1003.98
2016-09-03T03:31:45.739Z,1004.21
2016-09-03T03:32:07.576Z,1004.31
2016-09-03T03:32:29.304Z,1004.27
2016-09-03T03:32:51.029Z,1004.16
2016-09-03T03:33:12.763Z,1004.22
2016-09-03T03:33:34.485Z,1004.16
2016-09-03T03:33:56.229Z,1004.23
2016-09-03T03:34:18.041Z,1004.19
2016-09-03T03:34:39.768Z,1004.12
2016-09-03T03:35:01.496Z,1004.21
2016-09-03T03:35:23.259Z,1004.08
2016-09-03T03:35:45.993Z,1004.21
2016-09-03T03:36:08.729Z,1004.10
2016-09-03T03:36:33.403Z,1004.24
2016-09-03T03:36:55.145Z,1004.22
2016-09-03T03:37:17.871Z,1004.30
2016-09-03T03:37:39.608Z,1004.16
2016-09-03T03:38:01.390Z,1004.20
2016-09-03T03:38:23.249Z,1004.13
2016-09-03T03:38:44.974Z,1004.01
2016-09-03T03:39:06.702Z,1004.08
2016-09-03T03:39:28.428Z,1004.03
2016-09-03T03:39:50.149Z,1004.19
2016-09-03T03:40:11.897Z,1003.93
2016-09-03T03:40:33.685Z,1004.22
2016-09-03T03:40:55.417Z,1004.03
2016-09-03T03:41:17.135Z,1004.05
2016-09-03T03:41:38.897Z,1004.12
2016-09-03T03:42:00.815Z,1004.16
2016-09-03T03:42:22.782Z,1003.91
2016-09-03T03:42:44.523Z,1004.03
2016-09-03T03:43:06.248Z,1003.97
2016-09-03T03:43:32.744Z,1004.39
2016-09-03T03:43:54.485Z,1004.34
2016-09-03T03:44:16.222Z,1004.20
2016-09-03T03:44:37.957Z,1004.34
2016-09-03T03:44:59.714Z,1004.11
2016-09-03T03:45:24.409Z,1004.02
2016-09-03T03:45:46.143Z,1003.94
2016-09-03T03:46:07.883Z,1003.93
2016-09-03T03:46:29.615Z,1004.19
2016-09-03T03:46:54.266Z,1004.24
2016-09-03T03:47:57.330Z,1004.53
2016-09-03T03:48:19.061Z,1004.28
2016-09-03T03:48:40.795Z,1004.30
2016-09-03T03:49:02.565Z,1004.07
2016-09-03T03:49:24.312Z,1003.98
2016-09-03T03:49:46.047Z,1003.94
2016-09-03T03:50:07.788Z,1004.12
2016-09-03T03:50:29.515Z,1004.23
2016-09-03T03:50:51.237Z,1004.45
2016-09-03T03:51:12.962Z,1004.03
2016-09-03T03:51:34.687Z,1003.98
2016-09-03T03:51:56.399Z,1004.18
2016-09-03T03:52:18.152Z,1004.34
2016-09-03T03:52:40.495Z,1004.19
2016-09-03T03:53:06.994Z,1004.56
2016-09-03T03:53:30.095Z,1004.53
2016-09-03T03:53:51.832Z,1004.32
2016-09-03T03:54:13.554Z,1004.12
2016-09-03T03:54:35.395Z,1004.08
2016-09-03T03:54:57.207Z,1003.98
2016-09-03T03:55:18.964Z,1004.21
2016-09-03T03:55:40.693Z,1004.26
2016-09-03T03:56:02.424Z,1004.18
2016-09-03T03:56:24.155Z,1004.31
2016-09-03T03:56:45.877Z,1004.19
2016-09-03T03:57:07.596Z,1004.50
2016-09-03T03:57:29.334Z,1004.22
2016-09-03T03:57:51.062Z,1004.35
2016-09-03T03:58:12.930Z,1004.43
2016-09-03T03:58:34.816Z,1004.29
2016-09-03T03:58:56.550Z,1004.09
2016-09-03T03:59:18.274Z,1004.28
2016-09-03T03:59:40.027Z,1004.25
2016-09-03T04:00:04.472Z,1004.11
2016-09-03T04:01:02.294Z,1004.33
2016-09-03T04:01:24.038Z,1004.15
2016-09-03T04:01:45.772Z,1004.08
2016-09-03T04:02:07.564Z,1004.31
2016-09-03T04:02:29.404Z,1004.24
2016-09-03T04:03:23.410Z,1003.84
2016-09-03T04:03:45.158Z,1004.00
2016-09-03T04:04:06.905Z,1004.18
2016-09-03T04:04:28.630Z,1004.18
2016-09-03T04:04:50.383Z,1004.23
2016-09-03T04:05:12.117Z,1004.22
2016-09-03T04:05:33.935Z,1004.48
2016-09-03T04:06:27.040Z,1004.02
2016-09-03T04:06:48.774Z,1003.84
2016-09-03T04:07:10.627Z,1003.84
2016-09-03T04:07:32.344Z,1003.89
2016-09-03T04:07:54.075Z,1003.91
2016-09-03T04:08:15.823Z,1004.27
2016-09-03T04:08:37.594Z,1003.84
2016-09-03T04:08:59.344Z,1004.03
2016-09-03T04:09:21.081Z,1004.34
2016-09-03T04:09:42.815Z,1004.06
2016-09-03T04:10:04.547Z,1004.22
2016-09-03T04:10:26.280Z,1004.06
2016-09-03T04:10:49.010Z,1004.26
2016-09-03T04:11:10.739Z,1004.42
2016-09-03T04:11:32.479Z,1004.46
2016-09-03T04:11:54.231Z,1004.46
2016-09-03T04:12:15.964Z,1004.18
2016-09-03T04:12:37.717Z,1004.01
2016-09-03T04:12:59.475Z,1004.33
2016-09-03T04:13:21.227Z,1004.17
2016-09-03T04:13:42.959Z,1004.01
2016-09-03T04:14:04.706Z,1003.98
2016-09-03T04:14:26.438Z,1004.32
2016-09-03T04:14:48.169Z,1004.48
2016-09-03T04:15:09.903Z,1004.23
2016-09-03T04:15:31.631Z,1004.18
2016-09-03T04:15:53.373Z,1004.43
2016-09-03T04:16:15.122Z,1004.03
2016-09-03T04:16:36.895Z,1004.07
2016-09-03T04:16:58.646Z,1003.99
2016-09-03T04:17:20.399Z,1004.22
2016-09-03T04:17:42.136Z,1004.30
2016-09-03T04:18:03.868Z,1004.45
2016-09-03T04:18:25.599Z,1004.32
2016-09-03T04:18:47.359Z,1004.21
2016-09-03T04:19:09.093Z,1004.24
2016-09-03T04:19:30.863Z,1004.17
2016-09-03T04:19:52.608Z,1004.14
2016-09-03T04:20:14.339Z,1004.29
2016-09-03T04:20:36.076Z,1004.19
2016-09-03T04:20:57.804Z,1004.36
2016-09-03T04:21:19.523Z,1004.31
2016-09-03T04:21:41.250Z,1004.46
2016-09-03T04:22:03.247Z,1004.34
2016-09-03T04:22:29.753Z,1004.26
2016-09-03T04:22:51.494Z,1004.39
2016-09-03T04:23:13.222Z,1004.26
2016-09-03T04:23:34.955Z,1004.11
2016-09-03T04:23:56.684Z,1004.25
2016-09-03T04:24:18.419Z,1004.40
2016-09-03T04:24:40.217Z,1004.48
2016-09-03T04:25:02.048Z,1004.24
2016-09-03T04:25:23.773Z,1003.93
2016-09-03T04:25:45.561Z,1004.03
2016-09-03T04:26:08.298Z,1004.15
2016-09-03T04:26:30.034Z,1004.18
2016-09-03T04:26:51.798Z,1004.34
2016-09-03T04:27:19.302Z,1004.33
2016-09-03T04:27:41.029Z,1004.41
2016-09-03T04:28:02.761Z,1004.26
2016-09-03T04:28:51.020Z,1004.18
2016-09-03T04:29:12.725Z,1004.30
2016-09-03T04:29:34.466Z,1004.07
2016-09-03T04:29:56.220Z,1003.91
2016-09-03T04:30:17.955Z,1004.07
2016-09-03T04:30:39.679Z,1004.12
2016-09-03T04:31:01.433Z,1004.65
2016-09-03T04:31:24.172Z,1004.77
2016-09-03T04:31:45.919Z,1004.33
2016-09-03T04:32:07.647Z,1003.93
2016-09-03T04:32:29.385Z,1004.19
2016-09-03T04:32:51.112Z,1004.11
2016-09-03T04:33:12.853Z,1004.07
2016-09-03T04:33:34.572Z,1004.38
2016-09-03T04:33:56.303Z,1004.51
2016-09-03T04:34:18.041Z,1004.34
2016-09-03T04:34:39.784Z,1004.27
2016-09-03T04:35:01.523Z,1004.09
2016-09-03T04:35:23.263Z,1004.26
2016-09-03T04:35:44.987Z,1004.20
2016-09-03T04:36:06.761Z,1004.16
2016-09-03T04:36:28.581Z,1004.04
2016-09-03T04:36:50.309Z,1004.13
2016-09-03T04:37:12.044Z,1003.92
2016-09-03T04:37:33.791Z,1004.15
2016-09-03T04:37:55.519Z,1004.02